aviador You're here:

KLUL Decoded Metar

LAUREL in MS, USA
Report Time2017-11-20 13:15:00
UTC Time2017-11-20 13:25:33
Flight Rules vfr VFR
WindCalm
Visibility9999 m
Phenomena:N/A
Clouds:N/A
CeilingNone
Temp00°C (ISA -14)
Dew Point00°C (100% RH)
AAT-2.0°C
QNH1025 hPa
Density Alt-1,785 ft
Elevation299 ft
Report Wrong Elevation
Raw Report
KLUL 201315Z AUTO 00000KT 10SM CLR 00/00 A3027 RMK AO2
T10041004=

Extra information for KLUL:More info

Metar Taf Metar & Taf Last 4 Metars F.Rules Stats Wind Profile Meteogram Temp Stats Airport Information Weather charts Add Link Nearby VenuesMetar ALERT Operation Metar Decoded Social comments

AIRNAV info for KLUL